sensor_id;sensor_type;location;lat;lon;timestamp;temperature;humidity
69261;DHT22;56378;52.404;20.816;2024-02-16T00:02:17;7.50;99.90
69261;DHT22;56378;52.404;20.816;2024-02-16T00:04:44;7.50;99.90
69261;DHT22;56378;52.404;20.816;2024-02-16T00:07:09;7.50;99.90
69261;DHT22;56378;52.404;20.816;2024-02-16T00:09:36;7.40;99.90
69261;DHT22;56378;52.404;20.816;2024-02-16T00:12:01;7.40;99.90
69261;DHT22;56378;52.404;20.816;2024-02-16T00:14:27;7.50;99.90
69261;DHT22;56378;52.404;20.816;2024-02-16T00:16:53;7.40;99.90
69261;DHT22;56378;52.404;20.816;2024-02-16T00:19:19;7.50;99.90
69261;DHT22;56378;52.404;20.816;2024-02-16T00:21:44;7.40;99.90
69261;DHT22;56378;52.404;20.816;2024-02-16T00:24:10;7.40;99.90
69261;DHT22;56378;52.404;20.816;2024-02-16T00:26:37;7.30;99.90
69261;DHT22;56378;52.404;20.816;2024-02-16T00:29:05;7.30;99.90
69261;DHT22;56378;52.404;20.816;2024-02-16T00:31:30;7.30;99.90
69261;DHT22;56378;52.404;20.816;2024-02-16T00:33:56;7.30;99.90
69261;DHT22;56378;52.404;20.816;2024-02-16T00:36:22;7.30;99.90
69261;DHT22;56378;52.404;20.816;2024-02-16T00:38:48;7.30;99.90
69261;DHT22;56378;52.404;20.816;2024-02-16T00:41:21;7.30;99.90
69261;DHT22;56378;52.404;20.816;2024-02-16T00:43:47;7.20;99.90
69261;DHT22;56378;52.404;20.816;2024-02-16T00:46:12;7.30;99.90
69261;DHT22;56378;52.404;20.816;2024-02-16T00:48:40;7.20;99.90
69261;DHT22;56378;52.404;20.816;2024-02-16T00:51:05;7.20;99.90
69261;DHT22;56378;52.404;20.816;2024-02-16T00:53:31;7.20;99.90
69261;DHT22;56378;52.404;20.816;2024-02-16T00:55:57;7.10;99.90
69261;DHT22;56378;52.404;20.816;2024-02-16T00:58:23;7.10;99.90
69261;DHT22;56378;52.404;20.816;2024-02-16T01:00:48;7.10;99.90
69261;DHT22;56378;52.404;20.816;2024-02-16T01:03:14;7.00;99.90
69261;DHT22;56378;52.404;20.816;2024-02-16T01:05:40;7.00;99.90
69261;DHT22;56378;52.404;20.816;2024-02-16T01:08:06;7.00;99.90
69261;DHT22;56378;52.404;20.816;2024-02-16T01:10:32;7.00;99.90
69261;DHT22;56378;52.404;20.816;2024-02-16T01:12:58;6.90;99.90
69261;DHT22;56378;52.404;20.816;2024-02-16T01:15:24;6.90;99.90
69261;DHT22;56378;52.404;20.816;2024-02-16T01:17:50;6.90;99.90
69261;DHT22;56378;52.404;20.816;2024-02-16T01:20:15;6.90;99.90
69261;DHT22;56378;52.404;20.816;2024-02-16T01:22:41;6.90;99.90
69261;DHT22;56378;52.404;20.816;2024-02-16T01:25:08;6.80;99.90
69261;DHT22;56378;52.404;20.816;2024-02-16T01:27:35;6.80;99.90
69261;DHT22;56378;52.404;20.816;2024-02-16T01:30:01;6.70;99.90
69261;DHT22;56378;52.404;20.816;2024-02-16T01:32:26;6.70;99.90
69261;DHT22;56378;52.404;20.816;2024-02-16T01:34:52;6.70;99.90
69261;DHT22;56378;52.404;20.816;2024-02-16T01:37:18;6.70;99.90
69261;DHT22;56378;52.404;20.816;2024-02-16T01:39:44;6.60;99.90
69261;DHT22;56378;52.404;20.816;2024-02-16T01:42:11;6.60;99.90
69261;DHT22;56378;52.404;20.816;2024-02-16T01:44:36;6.60;99.90
69261;DHT22;56378;52.404;20.816;2024-02-16T01:47:03;6.50;99.90
69261;DHT22;56378;52.404;20.816;2024-02-16T01:49:30;6.40;99.90
69261;DHT22;56378;52.404;20.816;2024-02-16T01:51:56;6.40;99.90
69261;DHT22;56378;52.404;20.816;2024-02-16T01:54:23;6.40;99.90
69261;DHT22;56378;52.404;20.816;2024-02-16T01:56:49;6.30;99.90
69261;DHT22;56378;52.404;20.816;2024-02-16T01:59:16;6.30;99.90
69261;DHT22;56378;52.404;20.816;2024-02-16T02:01:42;6.30;99.90
69261;DHT22;56378;52.404;20.816;2024-02-16T02:04:08;6.30;99.90
69261;DHT22;56378;52.404;20.816;2024-02-16T02:06:34;6.30;99.90
69261;DHT22;56378;52.404;20.816;2024-02-16T02:09:00;6.20;99.90
69261;DHT22;56378;52.404;20.816;2024-02-16T02:11:26;6.20;99.90
69261;DHT22;56378;52.404;20.816;2024-02-16T02:13:52;6.20;99.90
69261;DHT22;56378;52.404;20.816;2024-02-16T02:16:19;6.10;99.90
69261;DHT22;56378;52.404;20.816;2024-02-16T02:18:46;6.10;99.90
69261;DHT22;56378;52.404;20.816;2024-02-16T02:21:12;6.10;99.90
69261;DHT22;56378;52.404;20.816;2024-02-16T02:23:40;6.00;99.90
69261;DHT22;56378;52.404;20.816;2024-02-16T02:26:06;6.00;99.90
69261;DHT22;56378;52.404;20.816;2024-02-16T02:28:32;6.10;99.90
69261;DHT22;56378;52.404;20.816;2024-02-16T02:30:59;6.10;99.90
69261;DHT22;56378;52.404;20.816;2024-02-16T02:33:25;6.00;99.90
69261;DHT22;56378;52.404;20.816;2024-02-16T02:35:51;6.00;99.90
69261;DHT22;56378;52.404;20.816;2024-02-16T02:38:17;6.00;99.90
69261;DHT22;56378;52.404;20.816;2024-02-16T02:40:43;6.00;99.90
69261;DHT22;56378;52.404;20.816;2024-02-16T02:43:08;6.00;99.90
69261;DHT22;56378;52.404;20.816;2024-02-16T02:45:34;5.90;99.90
69261;DHT22;56378;52.404;20.816;2024-02-16T02:48:00;5.90;99.90
69261;DHT22;56378;52.404;20.816;2024-02-16T02:50:26;6.00;99.90
69261;DHT22;56378;52.404;20.816;2024-02-16T02:52:52;5.90;99.90
69261;DHT22;56378;52.404;20.816;2024-02-16T02:55:18;5.90;99.90
69261;DHT22;56378;52.404;20.816;2024-02-16T02:57:43;5.90;99.90
69261;DHT22;56378;52.404;20.816;2024-02-16T03:00:09;5.90;99.90
69261;DHT22;56378;52.404;20.816;2024-02-16T03:02:38;5.80;99.90
69261;DHT22;56378;52.404;20.816;2024-02-16T03:05:05;5.80;99.90
69261;DHT22;56378;52.404;20.816;2024-02-16T03:07:33;5.80;99.90
69261;DHT22;56378;52.404;20.816;2024-02-16T03:09:58;5.70;99.90
69261;DHT22;56378;52.404;20.816;2024-02-16T03:12:24;5.70;99.90
69261;DHT22;56378;52.404;20.816;2024-02-16T03:14:51;5.60;99.90
69261;DHT22;56378;52.404;20.816;2024-02-16T03:17:17;5.60;99.90
69261;DHT22;56378;52.404;20.816;2024-02-16T03:19:43;5.60;99.90
69261;DHT22;56378;52.404;20.816;2024-02-16T03:22:08;5.60;99.90
69261;DHT22;56378;52.404;20.816;2024-02-16T03:24:34;5.50;99.90
69261;DHT22;56378;52.404;20.816;2024-02-16T03:27:00;5.50;99.90
69261;DHT22;56378;52.404;20.816;2024-02-16T03:29:26;5.50;99.90
69261;DHT22;56378;52.404;20.816;2024-02-16T03:31:52;5.40;99.90
69261;DHT22;56378;52.404;20.816;2024-02-16T03:34:18;5.30;99.90
69261;DHT22;56378;52.404;20.816;2024-02-16T03:36:43;5.30;99.90
69261;DHT22;56378;52.404;20.816;2024-02-16T03:39:09;5.20;99.90
69261;DHT22;56378;52.404;20.816;2024-02-16T03:41:35;5.20;99.90
69261;DHT22;56378;52.404;20.816;2024-02-16T03:44:01;5.10;99.90
69261;DHT22;56378;52.404;20.816;2024-02-16T03:46:27;5.10;99.90
69261;DHT22;56378;52.404;20.816;2024-02-16T03:48:53;5.10;99.90
69261;DHT22;56378;52.404;20.816;2024-02-16T03:51:18;5.10;99.90
69261;DHT22;56378;52.404;20.816;2024-02-16T03:53:44;5.10;99.90
69261;DHT22;56378;52.404;20.816;2024-02-16T03:56:19;5.10;99.90
69261;DHT22;56378;52.404;20.816;2024-02-16T03:58:44;5.00;99.90
69261;DHT22;56378;52.404;20.816;2024-02-16T04:01:10;5.10;99.90
69261;DHT22;56378;52.404;20.816;2024-02-16T04:03:36;5.10;99.90
69261;DHT22;56378;52.404;20.816;2024-02-16T04:06:01;5.10;99.90
69261;DHT22;56378;52.404;20.816;2024-02-16T04:08:29;5.10;99.90
69261;DHT22;56378;52.404;20.816;2024-02-16T04:10:55;5.10;99.90
69261;DHT22;56378;52.404;20.816;2024-02-16T04:13:21;5.10;99.90
69261;DHT22;56378;52.404;20.816;2024-02-16T04:15:47;5.10;99.90
69261;DHT22;56378;52.404;20.816;2024-02-16T04:18:12;5.00;99.90
69261;DHT22;56378;52.404;20.816;2024-02-16T04:20:38;5.00;99.90
69261;DHT22;56378;52.404;20.816;2024-02-16T04:23:06;4.90;99.90
69261;DHT22;56378;52.404;20.816;2024-02-16T04:25:32;4.90;99.90
69261;DHT22;56378;52.404;20.816;2024-02-16T04:27:57;4.80;99.90
69261;DHT22;56378;52.404;20.816;2024-02-16T04:30:23;4.70;99.90
69261;DHT22;56378;52.404;20.816;2024-02-16T04:32:49;4.70;99.90
69261;DHT22;56378;52.404;20.816;2024-02-16T04:35:15;4.70;99.90
69261;DHT22;56378;52.404;20.816;2024-02-16T04:37:41;4.60;99.90
69261;DHT22;56378;52.404;20.816;2024-02-16T04:40:07;4.60;99.90
69261;DHT22;56378;52.404;20.816;2024-02-16T04:42:33;4.60;99.90
69261;DHT22;56378;52.404;20.816;2024-02-16T04:44:59;4.50;99.90
69261;DHT22;56378;52.404;20.816;2024-02-16T04:47:25;4.40;99.90
69261;DHT22;56378;52.404;20.816;2024-02-16T04:49:52;4.40;99.90
69261;DHT22;56378;52.404;20.816;2024-02-16T04:52:17;4.30;99.90
69261;DHT22;56378;52.404;20.816;2024-02-16T04:54:43;4.20;99.90
69261;DHT22;56378;52.404;20.816;2024-02-16T04:57:09;4.10;99.90
69261;DHT22;56378;52.404;20.816;2024-02-16T04:59:35;4.10;99.90
69261;DHT22;56378;52.404;20.816;2024-02-16T05:02:01;4.00;99.90
69261;DHT22;56378;52.404;20.816;2024-02-16T05:04:26;3.90;99.90
69261;DHT22;56378;52.404;20.816;2024-02-16T05:06:52;3.90;99.90
69261;DHT22;56378;52.404;20.816;2024-02-16T05:09:23;3.80;99.90
69261;DHT22;56378;52.404;20.816;2024-02-16T05:11:50;3.70;99.90
69261;DHT22;56378;52.404;20.816;2024-02-16T05:14:16;3.70;99.90
69261;DHT22;56378;52.404;20.816;2024-02-16T05:16:44;3.60;99.90
69261;DHT22;56378;52.404;20.816;2024-02-16T05:19:10;3.60;99.90
69261;DHT22;56378;52.404;20.816;2024-02-16T05:21:36;3.60;99.90
69261;DHT22;56378;52.404;20.816;2024-02-16T05:24:02;3.50;99.90
69261;DHT22;56378;52.404;20.816;2024-02-16T05:26:28;3.40;99.90
69261;DHT22;56378;52.404;20.816;2024-02-16T05:28:53;3.40;99.90
69261;DHT22;56378;52.404;20.816;2024-02-16T05:31:19;3.40;99.90
69261;DHT22;56378;52.404;20.816;2024-02-16T05:33:49;3.30;99.90
69261;DHT22;56378;52.404;20.816;2024-02-16T05:36:22;3.30;99.90
69261;DHT22;56378;52.404;20.816;2024-02-16T05:38:50;3.30;99.90
69261;DHT22;56378;52.404;20.816;2024-02-16T05:41:17;3.30;99.90
69261;DHT22;56378;52.404;20.816;2024-02-16T05:43:46;3.20;99.90
69261;DHT22;56378;52.404;20.816;2024-02-16T05:46:17;3.20;99.90
69261;DHT22;56378;52.404;20.816;2024-02-16T05:48:44;3.20;99.90
69261;DHT22;56378;52.404;20.816;2024-02-16T05:51:10;3.20;99.90
69261;DHT22;56378;52.404;20.816;2024-02-16T05:53:38;3.10;99.90
69261;DHT22;56378;52.404;20.816;2024-02-16T05:56:05;3.10;99.90
69261;DHT22;56378;52.404;20.816;2024-02-16T05:58:31;3.10;99.90
69261;DHT22;56378;52.404;20.816;2024-02-16T06:00:57;3.10;99.90
69261;DHT22;56378;52.404;20.816;2024-02-16T06:03:23;3.10;99.90
69261;DHT22;56378;52.404;20.816;2024-02-16T06:05:49;3.10;99.90
69261;DHT22;56378;52.404;20.816;2024-02-16T06:08:14;3.20;99.90
69261;DHT22;56378;52.404;20.816;2024-02-16T06:10:44;3.30;99.90
69261;DHT22;56378;52.404;20.816;2024-02-16T06:13:17;3.40;99.90
69261;DHT22;56378;52.404;20.816;2024-02-16T06:15:42;3.60;99.90
69261;DHT22;56378;52.404;20.816;2024-02-16T06:18:08;3.80;99.90
69261;DHT22;56378;52.404;20.816;2024-02-16T06:20:35;4.10;99.90
69261;DHT22;56378;52.404;20.816;2024-02-16T06:23:00;4.60;99.90
69261;DHT22;56378;52.404;20.816;2024-02-16T06:25:27;5.30;99.90
69261;DHT22;56378;52.404;20.816;2024-02-16T06:27:53;5.90;99.90
69261;DHT22;56378;52.404;20.816;2024-02-16T06:30:18;6.20;99.90
69261;DHT22;56378;52.404;20.816;2024-02-16T06:32:44;6.50;99.90
69261;DHT22;56378;52.404;20.816;2024-02-16T06:35:10;7.00;99.90
69261;DHT22;56378;52.404;20.816;2024-02-16T06:37:36;8.00;96.00
69261;DHT22;56378;52.404;20.816;2024-02-16T06:40:06;9.20;89.20
69261;DHT22;56378;52.404;20.816;2024-02-16T06:42:35;10.00;84.40
69261;DHT22;56378;52.404;20.816;2024-02-16T06:52:21;10.20;81.80
69261;DHT22;56378;52.404;20.816;2024-02-16T06:54:47;10.90;79.10
69261;DHT22;56378;52.404;20.816;2024-02-16T06:57:14;10.80;74.50
69261;DHT22;56378;52.404;20.816;2024-02-16T06:59:40;10.50;74.70
69261;DHT22;56378;52.404;20.816;2024-02-16T07:02:06;10.20;76.30
69261;DHT22;56378;52.404;20.816;2024-02-16T07:04:33;10.10;77.70
69261;DHT22;56378;52.404;20.816;2024-02-16T07:06:59;10.00;77.60
69261;DHT22;56378;52.404;20.816;2024-02-16T07:09:25;10.00;78.20
69261;DHT22;56378;52.404;20.816;2024-02-16T07:11:50;10.80;74.90
69261;DHT22;56378;52.404;20.816;2024-02-16T07:14:17;12.50;66.30
69261;DHT22;56378;52.404;20.816;2024-02-16T07:16:43;14.10;59.10
69261;DHT22;56378;52.404;20.816;2024-02-16T07:19:09;15.70;52.10
69261;DHT22;56378;52.404;20.816;2024-02-16T07:21:35;16.80;48.70
69261;DHT22;56378;52.404;20.816;2024-02-16T07:24:00;17.80;45.90
69261;DHT22;56378;52.404;20.816;2024-02-16T07:26:27;19.20;42.10
69261;DHT22;56378;52.404;20.816;2024-02-16T07:28:53;19.90;40.30
69261;DHT22;56378;52.404;20.816;2024-02-16T07:31:18;20.90;38.10
69261;DHT22;56378;52.404;20.816;2024-02-16T07:33:44;21.50;36.60
69261;DHT22;56378;52.404;20.816;2024-02-16T07:36:10;22.10;35.50
69261;DHT22;56378;52.404;20.816;2024-02-16T07:38:35;22.60;34.10
69261;DHT22;56378;52.404;20.816;2024-02-16T07:41:01;22.70;33.50
69261;DHT22;56378;52.404;20.816;2024-02-16T07:43:28;22.70;33.50
69261;DHT22;56378;52.404;20.816;2024-02-16T07:45:53;22.90;33.20
69261;DHT22;56378;52.404;20.816;2024-02-16T07:48:23;23.00;32.60
69261;DHT22;56378;52.404;20.816;2024-02-16T07:50:49;22.30;33.20
69261;DHT22;56378;52.404;20.816;2024-02-16T07:53:17;21.80;33.70
69261;DHT22;56378;52.404;20.816;2024-02-16T07:55:43;21.80;33.90
69261;DHT22;56378;52.404;20.816;2024-02-16T07:58:09;20.00;36.00
69261;DHT22;56378;52.404;20.816;2024-02-16T08:00:35;18.60;38.40
69261;DHT22;56378;52.404;20.816;2024-02-16T08:03:00;17.40;40.80
69261;DHT22;56378;52.404;20.816;2024-02-16T08:05:26;16.30;42.00
69261;DHT22;56378;52.404;20.816;2024-02-16T08:07:52;15.90;44.60
69261;DHT22;56378;52.404;20.816;2024-02-16T08:10:19;17.70;42.00
69261;DHT22;56378;52.404;20.816;2024-02-16T08:12:46;19.20;38.30
69261;DHT22;56378;52.404;20.816;2024-02-16T08:15:12;20.00;36.60
69261;DHT22;56378;52.404;20.816;2024-02-16T08:17:39;21.50;34.50
69261;DHT22;56378;52.404;20.816;2024-02-16T08:20:05;23.10;32.40
69261;DHT22;56378;52.404;20.816;2024-02-16T08:22:31;23.70;31.00
69261;DHT22;56378;52.404;20.816;2024-02-16T08:24:58;24.30;29.90
69261;DHT22;56378;52.404;20.816;2024-02-16T08:27:24;24.60;29.60
69261;DHT22;56378;52.404;20.816;2024-02-16T08:29:50;25.40;28.70
69261;DHT22;56378;52.404;20.816;2024-02-16T08:32:17;26.20;28.20
69261;DHT22;56378;52.404;20.816;2024-02-16T08:34:45;26.60;27.20
69261;DHT22;56378;52.404;20.816;2024-02-16T08:37:10;26.70;27.10
69261;DHT22;56378;52.404;20.816;2024-02-16T08:39:38;27.00;26.90
69261;DHT22;56378;52.404;20.816;2024-02-16T08:42:04;27.20;26.80
69261;DHT22;56378;52.404;20.816;2024-02-16T08:44:29;27.60;26.40
69261;DHT22;56378;52.404;20.816;2024-02-16T08:46:55;28.30;25.70
69261;DHT22;56378;52.404;20.816;2024-02-16T08:49:21;28.00;25.70
69261;DHT22;56378;52.404;20.816;2024-02-16T08:51:48;27.90;25.70
69261;DHT22;56378;52.404;20.816;2024-02-16T08:54:13;27.70;26.10
69261;DHT22;56378;52.404;20.816;2024-02-16T08:56:39;28.20;25.90
69261;DHT22;56378;52.404;20.816;2024-02-16T08:59:06;28.50;25.50
69261;DHT22;56378;52.404;20.816;2024-02-16T09:01:35;28.40;25.80
69261;DHT22;56378;52.404;20.816;2024-02-16T09:04:01;28.80;25.10
69261;DHT22;56378;52.404;20.816;2024-02-16T09:06:27;29.00;25.10
69261;DHT22;56378;52.404;20.816;2024-02-16T09:08:54;29.10;25.20
69261;DHT22;56378;52.404;20.816;2024-02-16T09:11:19;30.40;24.40
69261;DHT22;56378;52.404;20.816;2024-02-16T09:13:45;31.20;23.90
69261;DHT22;56378;52.404;20.816;2024-02-16T09:16:11;32.00;22.80
69261;DHT22;56378;52.404;20.816;2024-02-16T09:18:37;30.60;23.80
69261;DHT22;56378;52.404;20.816;2024-02-16T09:21:06;30.70;23.60
69261;DHT22;56378;52.404;20.816;2024-02-16T09:23:33;31.40;23.30
69261;DHT22;56378;52.404;20.816;2024-02-16T09:25:59;31.10;23.60
69261;DHT22;56378;52.404;20.816;2024-02-16T09:28:27;31.90;22.80
69261;DHT22;56378;52.404;20.816;2024-02-16T09:30:55;32.20;22.90
69261;DHT22;56378;52.404;20.816;2024-02-16T09:33:22;32.80;22.00
69261;DHT22;56378;52.404;20.816;2024-02-16T09:35:51;32.80;22.30
69261;DHT22;56378;52.404;20.816;2024-02-16T09:38:17;33.40;21.70
69261;DHT22;56378;52.404;20.816;2024-02-16T09:40:43;33.60;21.80
69261;DHT22;56378;52.404;20.816;2024-02-16T09:43:09;32.90;22.10
69261;DHT22;56378;52.404;20.816;2024-02-16T09:45:35;32.50;22.20
69261;DHT22;56378;52.404;20.816;2024-02-16T09:48:02;32.60;22.30
69261;DHT22;56378;52.404;20.816;2024-02-16T09:50:30;33.20;22.00
69261;DHT22;56378;52.404;20.816;2024-02-16T09:52:56;33.90;21.60
69261;DHT22;56378;52.404;20.816;2024-02-16T09:55:23;34.20;21.20
69261;DHT22;56378;52.404;20.816;2024-02-16T09:58:01;33.40;21.60
69261;DHT22;56378;52.404;20.816;2024-02-16T10:00:27;33.60;21.50
69261;DHT22;56378;52.404;20.816;2024-02-16T10:02:53;33.20;21.80
69261;DHT22;56378;52.404;20.816;2024-02-16T10:05:22;33.30;21.50
69261;DHT22;56378;52.404;20.816;2024-02-16T10:07:48;32.80;21.90
69261;DHT22;56378;52.404;20.816;2024-02-16T10:10:22;32.70;22.20
69261;DHT22;56378;52.404;20.816;2024-02-16T10:12:48;33.20;22.00
69261;DHT22;56378;52.404;20.816;2024-02-16T10:15:22;33.50;21.70
69261;DHT22;56378;52.404;20.816;2024-02-16T10:18:00;34.00;21.40
69261;DHT22;56378;52.404;20.816;2024-02-16T10:20:26;33.80;21.50
69261;DHT22;56378;52.404;20.816;2024-02-16T10:23:11;33.60;21.50
69261;DHT22;56378;52.404;20.816;2024-02-16T10:25:38;33.20;21.80
69261;DHT22;56378;52.404;20.816;2024-02-16T10:28:08;33.30;21.80
69261;DHT22;56378;52.404;20.816;2024-02-16T10:30:38;33.40;22.00
69261;DHT22;56378;52.404;20.816;2024-02-16T10:33:08;34.40;21.60
69261;DHT22;56378;52.404;20.816;2024-02-16T10:35:37;34.50;21.20
69261;DHT22;56378;52.404;20.816;2024-02-16T10:38:05;34.30;21.20
69261;DHT22;56378;52.404;20.816;2024-02-16T10:40:41;34.40;21.30
69261;DHT22;56378;52.404;20.816;2024-02-16T10:43:08;33.90;21.40
69261;DHT22;56378;52.404;20.816;2024-02-16T10:45:38;33.90;21.60
69261;DHT22;56378;52.404;20.816;2024-02-16T10:48:05;34.10;21.50
69261;DHT22;56378;52.404;20.816;2024-02-16T10:50:33;33.50;21.70
69261;DHT22;56378;52.404;20.816;2024-02-16T10:53:26;33.00;22.10
69261;DHT22;56378;52.404;20.816;2024-02-16T10:55:52;32.10;22.70
69261;DHT22;56378;52.404;20.816;2024-02-16T10:58:21;31.50;23.10
69261;DHT22;56378;52.404;20.816;2024-02-16T11:00:51;31.60;23.10
69261;DHT22;56378;52.404;20.816;2024-02-16T11:03:21;31.60;23.40
69261;DHT22;56378;52.404;20.816;2024-02-16T11:05:48;31.20;23.60
69261;DHT22;56378;52.404;20.816;2024-02-16T11:08:16;28.70;25.50
69261;DHT22;56378;52.404;20.816;2024-02-16T11:13:32;23.70;30.40
69261;DHT22;56378;52.404;20.816;2024-02-16T11:16:02;22.50;33.00
69261;DHT22;56378;52.404;20.816;2024-02-16T11:18:32;21.80;33.90
69261;DHT22;56378;52.404;20.816;2024-02-16T11:21:02;23.10;32.20
69261;DHT22;56378;52.404;20.816;2024-02-16T11:23:30;24.90;30.20
69261;DHT22;56378;52.404;20.816;2024-02-16T11:26:17;26.70;28.00
69261;DHT22;56378;52.404;20.816;2024-02-16T11:28:43;27.30;27.60
69261;DHT22;56378;52.404;20.816;2024-02-16T11:31:09;28.00;27.20
69261;DHT22;56378;52.404;20.816;2024-02-16T11:33:35;28.80;26.80
69261;DHT22;56378;52.404;20.816;2024-02-16T11:36:03;29.90;25.70
69261;DHT22;56378;52.404;20.816;2024-02-16T11:38:32;30.90;24.90
69261;DHT22;56378;52.404;20.816;2024-02-16T11:41:04;31.50;24.20
69261;DHT22;56378;52.404;20.816;2024-02-16T11:43:31;31.10;24.50
69261;DHT22;56378;52.404;20.816;2024-02-16T11:45:58;31.00;24.80
69261;DHT22;56378;52.404;20.816;2024-02-16T11:48:25;31.10;24.80
69261;DHT22;56378;52.404;20.816;2024-02-16T11:51:00;31.40;24.90
69261;DHT22;56378;52.404;20.816;2024-02-16T11:53:27;31.60;24.50
69261;DHT22;56378;52.404;20.816;2024-02-16T11:55:53;31.10;24.70
69261;DHT22;56378;52.404;20.816;2024-02-16T11:58:19;30.40;25.30
69261;DHT22;56378;52.404;20.816;2024-02-16T12:00:49;30.40;25.50
69261;DHT22;56378;52.404;20.816;2024-02-16T12:03:25;30.00;25.60
69261;DHT22;56378;52.404;20.816;2024-02-16T12:06:02;29.50;26.10
69261;DHT22;56378;52.404;20.816;2024-02-16T12:08:34;28.70;26.90
69261;DHT22;56378;52.404;20.816;2024-02-16T12:11:02;28.60;27.10
69261;DHT22;56378;52.404;20.816;2024-02-16T12:13:28;27.40;28.20
69261;DHT22;56378;52.404;20.816;2024-02-16T12:15:53;27.20;28.60
69261;DHT22;56378;52.404;20.816;2024-02-16T12:18:26;27.30;28.50
69261;DHT22;56378;52.404;20.816;2024-02-16T12:21:06;27.30;28.30
69261;DHT22;56378;52.404;20.816;2024-02-16T12:23:33;26.80;28.90
69261;DHT22;56378;52.404;20.816;2024-02-16T12:26:02;26.30;29.40
69261;DHT22;56378;52.404;20.816;2024-02-16T12:28:30;25.60;30.20
69261;DHT22;56378;52.404;20.816;2024-02-16T12:30:59;24.40;31.50
69261;DHT22;56378;52.404;20.816;2024-02-16T12:33:26;24.00;32.20
69261;DHT22;56378;52.404;20.816;2024-02-16T12:35:52;23.20;33.40
69261;DHT22;56378;52.404;20.816;2024-02-16T12:38:19;22.30;34.50
69261;DHT22;56378;52.404;20.816;2024-02-16T12:40:48;21.60;35.80
69261;DHT22;56378;52.404;20.816;2024-02-16T12:43:14;21.30;36.30
69261;DHT22;56378;52.404;20.816;2024-02-16T12:45:41;20.60;37.60
69261;DHT22;56378;52.404;20.816;2024-02-16T12:48:07;19.50;39.70
69261;DHT22;56378;52.404;20.816;2024-02-16T12:50:35;18.40;42.30
69261;DHT22;56378;52.404;20.816;2024-02-16T12:53:01;17.60;44.50
69261;DHT22;56378;52.404;20.816;2024-02-16T12:55:27;17.10;46.40
69261;DHT22;56378;52.404;20.816;2024-02-16T12:57:53;16.60;48.40
69261;DHT22;56378;52.404;20.816;2024-02-16T13:00:19;16.40;49.10
69261;DHT22;56378;52.404;20.816;2024-02-16T13:02:45;16.10;50.20
69261;DHT22;56378;52.404;20.816;2024-02-16T13:05:11;16.00;50.80
69261;DHT22;56378;52.404;20.816;2024-02-16T13:07:47;15.80;51.60
69261;DHT22;56378;52.404;20.816;2024-02-16T13:10:12;15.60;52.60
69261;DHT22;56378;52.404;20.816;2024-02-16T13:12:39;15.50;53.40
69261;DHT22;56378;52.404;20.816;2024-02-16T13:15:08;15.20;54.00
69261;DHT22;56378;52.404;20.816;2024-02-16T13:17:33;15.10;55.00
69261;DHT22;56378;52.404;20.816;2024-02-16T13:20:00;15.00;55.50
69261;DHT22;56378;52.404;20.816;2024-02-16T13:22:38;15.00;55.40
69261;DHT22;56378;52.404;20.816;2024-02-16T13:25:05;15.00;56.10
69261;DHT22;56378;52.404;20.816;2024-02-16T13:27:32;15.00;56.30
69261;DHT22;56378;52.404;20.816;2024-02-16T13:29:58;14.90;56.40
69261;DHT22;56378;52.404;20.816;2024-02-16T13:32:24;14.90;56.60
69261;DHT22;56378;52.404;20.816;2024-02-16T13:34:50;14.90;56.40
69261;DHT22;56378;52.404;20.816;2024-02-16T13:37:16;15.00;56.40
69261;DHT22;56378;52.404;20.816;2024-02-16T13:39:42;14.90;56.60
69261;DHT22;56378;52.404;20.816;2024-02-16T13:42:08;14.80;57.10
69261;DHT22;56378;52.404;20.816;2024-02-16T13:44:34;14.80;56.70
69261;DHT22;56378;52.404;20.816;2024-02-16T13:47:00;14.70;57.30
69261;DHT22;56378;52.404;20.816;2024-02-16T13:49:26;14.60;57.20
69261;DHT22;56378;52.404;20.816;2024-02-16T13:51:52;14.50;57.40
69261;DHT22;56378;52.404;20.816;2024-02-16T13:54:17;14.40;58.00
69261;DHT22;56378;52.404;20.816;2024-02-16T13:56:43;14.30;58.30
69261;DHT22;56378;52.404;20.816;2024-02-16T13:59:09;14.20;58.40
69261;DHT22;56378;52.404;20.816;2024-02-16T14:01:35;14.10;58.60
69261;DHT22;56378;52.404;20.816;2024-02-16T14:04:02;14.10;58.70
69261;DHT22;56378;52.404;20.816;2024-02-16T14:06:28;14.00;58.80
69261;DHT22;56378;52.404;20.816;2024-02-16T14:08:54;13.90;58.90
69261;DHT22;56378;52.404;20.816;2024-02-16T14:11:21;13.80;59.00
69261;DHT22;56378;52.404;20.816;2024-02-16T14:13:48;13.70;59.50
69261;DHT22;56378;52.404;20.816;2024-02-16T14:16:14;13.70;59.50
69261;DHT22;56378;52.404;20.816;2024-02-16T14:18:40;13.60;59.70
69261;DHT22;56378;52.404;20.816;2024-02-16T14:21:05;13.50;60.00
69261;DHT22;56378;52.404;20.816;2024-02-16T14:23:32;13.40;60.40
69261;DHT22;56378;52.404;20.816;2024-02-16T14:25:59;13.40;60.70
69261;DHT22;56378;52.404;20.816;2024-02-16T14:28:24;13.30;61.10
69261;DHT22;56378;52.404;20.816;2024-02-16T14:30:50;13.20;61.40
69261;DHT22;56378;52.404;20.816;2024-02-16T14:33:16;13.10;61.70
69261;DHT22;56378;52.404;20.816;2024-02-16T14:35:45;13.00;61.90
69261;DHT22;56378;52.404;20.816;2024-02-16T14:38:11;12.90;62.40
69261;DHT22;56378;52.404;20.816;2024-02-16T14:40:38;12.80;62.90
69261;DHT22;56378;52.404;20.816;2024-02-16T14:43:04;12.80;63.20
69261;DHT22;56378;52.404;20.816;2024-02-16T14:45:30;12.70;63.50
69261;DHT22;56378;52.404;20.816;2024-02-16T14:47:56;12.70;64.00
69261;DHT22;56378;52.404;20.816;2024-02-16T14:50:23;12.60;64.00
69261;DHT22;56378;52.404;20.816;2024-02-16T14:52:49;12.60;64.50
69261;DHT22;56378;52.404;20.816;2024-02-16T14:55:15;12.50;64.70
69261;DHT22;56378;52.404;20.816;2024-02-16T14:57:44;12.50;65.10
69261;DHT22;56378;52.404;20.816;2024-02-16T15:00:11;12.50;65.40
69261;DHT22;56378;52.404;20.816;2024-02-16T15:02:38;12.40;65.70
69261;DHT22;56378;52.404;20.816;2024-02-16T15:05:07;12.30;66.00
69261;DHT22;56378;52.404;20.816;2024-02-16T15:07:33;12.30;66.00
69261;DHT22;56378;52.404;20.816;2024-02-16T15:10:00;12.20;66.30
69261;DHT22;56378;52.404;20.816;2024-02-16T15:12:26;12.20;66.60
69261;DHT22;56378;52.404;20.816;2024-02-16T15:14:52;12.10;66.80
69261;DHT22;56378;52.404;20.816;2024-02-16T15:17:18;12.10;66.60
69261;DHT22;56378;52.404;20.816;2024-02-16T15:19:45;12.00;66.70
69261;DHT22;56378;52.404;20.816;2024-02-16T15:22:11;12.00;66.70
69261;DHT22;56378;52.404;20.816;2024-02-16T15:24:36;11.90;66.70
69261;DHT22;56378;52.404;20.816;2024-02-16T15:27:02;11.80;66.80
69261;DHT22;56378;52.404;20.816;2024-02-16T15:29:32;11.70;67.10
69261;DHT22;56378;52.404;20.816;2024-02-16T15:32:00;11.60;67.60